createdAt,value
2019-02-21T00:02:15.058Z,6.70
2019-02-21T00:04:42.648Z,6.60
2019-02-21T00:07:10.338Z,6.50
2019-02-21T00:09:38.065Z,6.40
2019-02-21T00:12:05.758Z,6.40
2019-02-21T00:14:33.191Z,6.50
2019-02-21T00:17:00.663Z,6.50
2019-02-21T00:19:28.109Z,6.70
2019-02-21T00:21:55.553Z,6.90
2019-02-21T00:24:23.059Z,7.00
2019-02-21T00:26:50.685Z,7.00
2019-02-21T00:29:18.245Z,7.00
2019-02-21T00:31:45.897Z,7.10
2019-02-21T00:34:13.431Z,7.00
2019-02-21T00:36:40.871Z,7.00
2019-02-21T00:39:08.406Z,7.00
2019-02-21T00:41:37.863Z,7.00
2019-02-21T00:44:05.271Z,6.90
2019-02-21T00:46:32.826Z,6.70
2019-02-21T00:49:00.587Z,6.60
2019-02-21T00:51:28.044Z,6.60
2019-02-21T00:53:55.624Z,6.50
2019-02-21T00:56:23.266Z,6.50
2019-02-21T00:58:50.874Z,6.40
2019-02-21T01:01:20.737Z,6.30
2019-02-21T01:03:47.896Z,6.30
2019-02-21T01:06:15.471Z,6.20
2019-02-21T01:08:43.363Z,6.20
2019-02-21T01:11:10.925Z,6.20
2019-02-21T01:13:38.601Z,6.20
2019-02-21T01:16:06.076Z,6.20
2019-02-21T01:18:33.528Z,6.20
2019-02-21T01:21:00.951Z,6.10
2019-02-21T01:23:28.443Z,6.10
2019-02-21T01:25:55.934Z,6.00
2019-02-21T01:28:23.479Z,6.00
2019-02-21T01:30:56.916Z,6.00
2019-02-21T01:33:20.360Z,6.00
2019-02-21T01:35:47.931Z,6.00
2019-02-21T01:38:15.415Z,5.90
2019-02-21T01:40:42.821Z,5.90
2019-02-21T01:43:10.389Z,5.90
2019-02-21T01:45:38.039Z,6.00
2019-02-21T01:48:06.667Z,5.90
2019-02-21T01:50:34.229Z,5.90
2019-02-21T01:53:01.675Z,5.90
2019-02-21T01:55:29.163Z,5.80
2019-02-21T01:57:56.806Z,5.80
2019-02-21T02:00:24.338Z,5.90
2019-02-21T02:02:51.820Z,5.80
2019-02-21T02:05:19.131Z,5.80
2019-02-21T02:07:46.752Z,5.80
2019-02-21T02:10:14.350Z,5.70
2019-02-21T02:12:41.714Z,5.70
2019-02-21T02:15:09.172Z,5.70
2019-02-21T02:17:36.732Z,5.60
2019-02-21T02:20:04.182Z,5.50
2019-02-21T02:22:36.151Z,5.40
2019-02-21T02:25:03.584Z,5.30
2019-02-21T02:27:31.023Z,5.20
2019-02-21T02:29:58.435Z,5.20
2019-02-21T02:32:25.967Z,5.20
2019-02-21T02:34:53.416Z,5.10
2019-02-21T02:37:20.846Z,5.20
2019-02-21T02:39:48.414Z,5.30
2019-02-21T02:42:15.874Z,5.30
2019-02-21T02:44:43.293Z,5.40
2019-02-21T02:47:11.002Z,5.40
2019-02-21T02:49:38.442Z,5.40
2019-02-21T02:52:06.148Z,5.30
2019-02-21T02:54:33.819Z,5.30
2019-02-21T02:57:01.360Z,5.30
2019-02-21T02:59:40.087Z,5.30
2019-02-21T03:01:58.070Z,5.30
2019-02-21T03:04:26.645Z,5.40
2019-02-21T03:06:54.154Z,5.50
2019-02-21T03:09:21.557Z,5.60
2019-02-21T03:11:51.748Z,5.70
2019-02-21T03:14:18.353Z,5.80
2019-02-21T03:16:45.851Z,5.80
2019-02-21T03:19:13.593Z,5.70
2019-02-21T03:21:41.086Z,5.70
2019-02-21T03:24:08.644Z,5.70
2019-02-21T03:26:36.090Z,5.70
2019-02-21T03:29:03.747Z,5.70
2019-02-21T03:31:31.301Z,5.90
2019-02-21T03:33:58.814Z,5.80
2019-02-21T03:36:26.360Z,5.70
2019-02-21T03:38:53.973Z,5.80
2019-02-21T03:41:21.542Z,5.90
2019-02-21T03:43:49.117Z,5.80
2019-02-21T03:46:16.581Z,5.80
2019-02-21T03:48:44.072Z,5.70
2019-02-21T03:51:11.541Z,5.90
2019-02-21T03:53:38.953Z,5.90
2019-02-21T03:56:06.451Z,6.00
2019-02-21T03:58:33.890Z,6.00
2019-02-21T04:01:01.361Z,6.10
2019-02-21T04:03:29.832Z,6.10
2019-02-21T04:05:57.255Z,6.20
2019-02-21T04:08:24.770Z,6.20
2019-02-21T04:10:52.476Z,6.20
2019-02-21T04:13:19.864Z,6.10
2019-02-21T04:15:47.527Z,6.00
2019-02-21T04:18:15.132Z,6.10
2019-02-21T04:20:42.987Z,6.00
2019-02-21T04:23:10.524Z,6.00
2019-02-21T04:25:37.995Z,6.00
2019-02-21T04:28:05.731Z,6.00
2019-02-21T04:30:33.483Z,6.00
2019-02-21T04:33:02.192Z,6.00
2019-02-21T04:35:29.815Z,5.90
2019-02-21T04:37:57.465Z,5.90
2019-02-21T04:40:33.537Z,5.80
2019-02-21T04:43:01.030Z,5.70
2019-02-21T04:45:28.589Z,5.60
2019-02-21T04:47:56.067Z,5.60
2019-02-21T04:50:23.651Z,5.60
2019-02-21T04:52:51.016Z,5.70
2019-02-21T04:55:18.645Z,5.80
2019-02-21T04:57:46.252Z,5.80
2019-02-21T05:00:13.693Z,5.80
2019-02-21T05:02:41.147Z,5.80
2019-02-21T05:05:08.772Z,5.80
2019-02-21T05:07:36.393Z,5.90
2019-02-21T05:10:04.404Z,5.90
2019-02-21T05:12:32.083Z,6.00
2019-02-21T05:14:59.635Z,6.00
2019-02-21T05:17:27.300Z,6.00
2019-02-21T05:19:54.863Z,6.10
2019-02-21T05:22:22.494Z,6.10
2019-02-21T05:24:50.428Z,6.20
2019-02-21T05:27:25.250Z,6.20
2019-02-21T05:29:52.834Z,6.30
2019-02-21T05:32:40.682Z,6.30
2019-02-21T05:35:35.339Z,6.30
2019-02-21T05:38:09.995Z,6.30
2019-02-21T05:40:59.927Z,6.30
2019-02-21T05:43:55.841Z,6.30
2019-02-21T05:46:52.002Z,6.30
2019-02-21T05:49:38.927Z,6.20
2019-02-21T05:52:20.504Z,6.10
2019-02-21T05:55:09.347Z,6.20
2019-02-21T05:57:54.859Z,6.20
2019-02-21T06:00:48.076Z,6.20
2019-02-21T06:03:26.393Z,6.20
2019-02-21T06:06:12.519Z,6.20
2019-02-21T06:09:11.817Z,6.20
2019-02-21T06:11:59.203Z,6.20
2019-02-21T06:14:47.452Z,6.20
2019-02-21T06:17:37.868Z,6.30
2019-02-21T06:20:27.787Z,6.20
2019-02-21T06:23:14.985Z,6.10
2019-02-21T06:25:58.038Z,6.20
2019-02-21T06:28:30.299Z,6.20
2019-02-21T06:31:03.782Z,6.10
2019-02-21T06:33:31.504Z,6.00
2019-02-21T06:35:59.203Z,5.90
2019-02-21T06:38:26.847Z,6.00
2019-02-21T06:40:54.333Z,6.00
2019-02-21T06:43:21.990Z,5.90
2019-02-21T06:45:49.647Z,5.80
2019-02-21T06:48:17.408Z,5.90
2019-02-21T06:50:47.021Z,5.90
2019-02-21T06:53:14.483Z,6.00
2019-02-21T06:55:41.938Z,6.10
2019-02-21T06:58:09.681Z,6.10
2019-02-21T07:00:37.380Z,6.10
2019-02-21T07:03:15.191Z,6.20
2019-02-21T07:05:37.443Z,6.20
2019-02-21T07:08:05.087Z,6.20
2019-02-21T07:10:32.568Z,6.20
2019-02-21T07:13:00.138Z,6.20
2019-02-21T07:15:27.891Z,6.30
2019-02-21T07:17:55.444Z,6.30
2019-02-21T07:20:23.473Z,6.30
2019-02-21T07:22:51.438Z,6.40
2019-02-21T07:25:33.143Z,6.40
2019-02-21T07:28:11.252Z,6.50
2019-02-21T07:30:30.235Z,6.50
2019-02-21T07:32:57.913Z,6.60
2019-02-21T07:35:25.436Z,6.60
2019-02-21T07:37:53.120Z,6.70
2019-02-21T07:40:20.738Z,6.70
2019-02-21T07:42:48.431Z,6.80
2019-02-21T07:45:16.124Z,6.80
2019-02-21T07:47:43.782Z,6.90
2019-02-21T07:50:11.529Z,6.90
2019-02-21T07:52:39.177Z,7.00
2019-02-21T07:55:06.874Z,7.10
2019-02-21T07:57:34.418Z,7.00
2019-02-21T08:00:01.920Z,6.90
2019-02-21T08:02:30.278Z,6.80
2019-02-21T08:04:58.034Z,6.90
2019-02-21T08:07:26.449Z,7.00
2019-02-21T08:09:54.505Z,7.10
2019-02-21T08:12:23.270Z,7.30
2019-02-21T08:14:51.314Z,7.40
2019-02-21T08:17:18.896Z,7.60
2019-02-21T08:19:46.699Z,7.70
2019-02-21T08:22:14.357Z,7.80
2019-02-21T08:24:42.154Z,7.90
2019-02-21T08:27:09.796Z,8.00
2019-02-21T08:29:37.474Z,7.90
2019-02-21T08:32:05.049Z,8.00
2019-02-21T08:34:44.636Z,8.00
2019-02-21T08:37:12.713Z,8.00
2019-02-21T08:39:40.286Z,8.00
2019-02-21T08:42:08.043Z,7.90
2019-02-21T08:44:35.710Z,7.80
2019-02-21T08:47:03.355Z,7.70
2019-02-21T08:49:31.209Z,7.70
2019-02-21T08:51:58.668Z,7.60
2019-02-21T08:54:26.347Z,7.50
2019-02-21T08:56:54.075Z,7.50
2019-02-21T08:59:21.578Z,7.60
2019-02-21T09:01:49.123Z,7.80
2019-02-21T09:04:26.791Z,8.00
2019-02-21T09:06:46.602Z,8.00
2019-02-21T09:09:14.219Z,8.10
2019-02-21T09:11:41.839Z,8.20
2019-02-21T09:14:09.402Z,8.20
2019-02-21T09:16:36.909Z,8.30
2019-02-21T09:19:04.554Z,8.40
2019-02-21T09:21:32.250Z,8.50
2019-02-21T09:23:59.980Z,8.50
2019-02-21T09:26:27.457Z,8.60
2019-02-21T09:28:55.379Z,8.70
2019-02-21T09:31:22.981Z,8.70
2019-02-21T09:33:50.461Z,8.70
2019-02-21T09:36:18.292Z,8.80
2019-02-21T09:38:46.114Z,9.00
2019-02-21T09:41:13.668Z,9.10
2019-02-21T09:43:41.389Z,9.10
2019-02-21T09:46:08.942Z,9.20
2019-02-21T09:48:37.806Z,9.10
2019-02-21T09:51:05.438Z,9.00
2019-02-21T09:53:32.952Z,8.90
2019-02-21T09:56:00.449Z,8.80
2019-02-21T09:58:28.023Z,8.80
2019-02-21T10:00:55.791Z,8.90
2019-02-21T10:03:23.373Z,8.80
2019-02-21T10:05:51.013Z,8.80
2019-02-21T10:08:18.687Z,8.70
2019-02-21T10:10:46.097Z,8.80
2019-02-21T10:13:13.623Z,8.90
2019-02-21T10:15:41.153Z,9.00
2019-02-21T10:18:08.876Z,9.10
2019-02-21T10:20:36.404Z,9.20
2019-02-21T10:23:04.102Z,9.50
2019-02-21T10:25:31.667Z,9.70
2019-02-21T10:27:59.326Z,9.90
2019-02-21T10:30:27.131Z,10.00
2019-02-21T10:32:54.617Z,10.00
2019-02-21T10:35:22.117Z,10.00
2019-02-21T10:37:49.894Z,9.80
2019-02-21T10:40:17.544Z,9.80
2019-02-21T10:42:45.244Z,9.60
2019-02-21T10:45:14.251Z,9.60
2019-02-21T10:47:45.013Z,9.70
2019-02-21T10:50:15.032Z,9.60
2019-02-21T10:52:42.570Z,9.70
2019-02-21T10:55:10.583Z,9.70
2019-02-21T10:57:38.128Z,9.60
2019-02-21T11:00:10.509Z,9.60
2019-02-21T11:02:39.049Z,9.60
2019-02-21T11:05:07.087Z,9.70
2019-02-21T11:07:34.677Z,9.60
2019-02-21T11:10:02.366Z,9.60
2019-02-21T11:12:30.310Z,9.60
2019-02-21T11:14:57.993Z,9.80
2019-02-21T11:17:25.987Z,9.70
2019-02-21T11:19:53.828Z,9.80
2019-02-21T11:22:21.482Z,9.80
2019-02-21T11:24:49.088Z,9.70
2019-02-21T11:27:16.760Z,9.50
2019-02-21T11:29:44.749Z,9.50
2019-02-21T11:32:20.403Z,9.50
2019-02-21T11:34:47.909Z,9.50
2019-02-21T11:37:15.696Z,9.70
2019-02-21T11:39:43.236Z,9.80
2019-02-21T11:42:11.146Z,9.90
2019-02-21T11:44:38.735Z,9.70
2019-02-21T11:47:06.518Z,9.70
2019-02-21T11:49:34.185Z,9.60
2019-02-21T11:52:09.874Z,9.70
2019-02-21T11:54:31.571Z,9.90
2019-02-21T11:56:59.375Z,10.10
2019-02-21T11:59:27.061Z,10.20
2019-02-21T12:01:54.538Z,10.00
2019-02-21T12:04:24.361Z,10.10
2019-02-21T12:06:53.849Z,10.10
2019-02-21T12:09:21.792Z,10.20
2019-02-21T12:11:49.909Z,10.20
2019-02-21T12:14:17.602Z,10.30
2019-02-21T12:16:46.462Z,10.40
2019-02-21T12:19:14.333Z,10.40
2019-02-21T12:21:41.915Z,10.60
2019-02-21T12:24:14.178Z,10.70
2019-02-21T12:26:42.499Z,10.80
2019-02-21T12:29:11.128Z,11.00
2019-02-21T12:31:39.078Z,11.20
2019-02-21T12:34:06.720Z,11.20
2019-02-21T12:36:37.904Z,11.30
2019-02-21T12:39:05.893Z,11.20
2019-02-21T12:41:35.584Z,11.30
2019-02-21T12:44:03.661Z,11.50
2019-02-21T12:46:31.981Z,11.90
2019-02-21T12:48:59.692Z,12.90
2019-02-21T12:51:29.832Z,13.90
2019-02-21T12:53:58.525Z,13.90
2019-02-21T12:56:26.276Z,13.10
2019-02-21T12:58:53.904Z,12.40
2019-02-21T13:01:21.445Z,11.70
2019-02-21T13:03:49.203Z,11.60
2019-02-21T13:06:20.207Z,11.60
2019-02-21T13:08:47.945Z,11.50
2019-02-21T13:11:15.524Z,11.50
2019-02-21T13:13:43.443Z,11.40
2019-02-21T13:16:11.227Z,11.20
2019-02-21T13:18:39.306Z,11.20
2019-02-21T13:21:07.032Z,11.40
2019-02-21T13:23:34.543Z,11.80
2019-02-21T13:26:02.229Z,12.20
2019-02-21T13:28:31.130Z,12.40
2019-02-21T13:30:58.941Z,12.40
2019-02-21T13:33:26.591Z,12.20
2019-02-21T13:35:54.229Z,11.80
2019-02-21T13:38:21.851Z,11.60
2019-02-21T13:40:49.700Z,11.50
2019-02-21T13:43:17.323Z,11.60
2019-02-21T13:45:45.375Z,11.60
2019-02-21T13:48:13.281Z,11.80
2019-02-21T13:50:40.920Z,12.10
2019-02-21T13:53:08.638Z,12.50
2019-02-21T13:55:36.607Z,12.50
2019-02-21T13:58:04.280Z,12.30
2019-02-21T14:00:32.056Z,12.20
2019-02-21T14:02:59.739Z,12.10
2019-02-21T14:05:27.382Z,12.20
2019-02-21T14:07:55.096Z,12.50
2019-02-21T14:10:23.632Z,12.60
2019-02-21T14:12:51.572Z,12.80
2019-02-21T14:15:21.948Z,12.80
2019-02-21T14:17:49.761Z,12.80
2019-02-21T14:20:18.581Z,12.80
2019-02-21T14:22:46.591Z,12.90
2019-02-21T14:25:14.222Z,12.80
2019-02-21T14:27:44.934Z,12.60
2019-02-21T14:30:14.499Z,12.60
2019-02-21T14:32:42.163Z,12.60
2019-02-21T14:35:10.461Z,12.60
2019-02-21T14:37:38.162Z,12.50
2019-02-21T14:40:10.605Z,12.20
2019-02-21T14:42:38.468Z,12.10
2019-02-21T14:45:12.465Z,12.10
2019-02-21T14:47:40.365Z,12.20
2019-02-21T14:50:09.280Z,12.20
2019-02-21T14:52:36.992Z,12.10
2019-02-21T14:55:05.807Z,12.30
2019-02-21T14:57:40.986Z,12.30
2019-02-21T15:00:03.024Z,12.30
2019-02-21T15:02:30.682Z,12.30
2019-02-21T15:04:58.590Z,12.20
2019-02-21T15:07:28.357Z,12.10
2019-02-21T15:09:56.207Z,12.10
2019-02-21T15:12:23.722Z,12.10
2019-02-21T15:14:52.163Z,12.10
2019-02-21T15:17:19.842Z,12.00
2019-02-21T15:19:48.253Z,12.00
2019-02-21T15:22:16.023Z,12.00
2019-02-21T15:24:43.490Z,12.00
2019-02-21T15:27:11.125Z,12.10
2019-02-21T15:29:41.518Z,12.10
2019-02-21T15:32:11.145Z,11.90
2019-02-21T15:34:37.621Z,12.00
2019-02-21T15:37:05.267Z,12.00
2019-02-21T15:39:32.830Z,12.10
2019-02-21T15:42:00.434Z,12.10
2019-02-21T15:44:28.179Z,12.30
2019-02-21T15:46:56.151Z,12.40
2019-02-21T15:49:23.990Z,12.40
2019-02-21T15:51:51.912Z,12.40
2019-02-21T15:54:19.648Z,12.40
2019-02-21T15:56:51.443Z,12.30
2019-02-21T15:59:26.324Z,12.20
2019-02-21T16:01:54.773Z,12.10
2019-02-21T16:04:22.737Z,12.00
2019-02-21T16:06:51.778Z,11.90
2019-02-21T16:09:19.918Z,11.90
2019-02-21T16:11:47.646Z,11.80
2019-02-21T16:15:25.296Z,11.80
2019-02-21T16:18:32.066Z,11.70
2019-02-21T16:21:37.785Z,11.70
2019-02-21T16:26:45.697Z,11.80
2019-02-21T16:28:31.045Z,11.80
2019-02-21T16:31:22.128Z,11.70
2019-02-21T16:34:34.346Z,11.70
2019-02-21T16:44:28.580Z,11.70
2019-02-21T16:47:15.022Z,11.70
2019-02-21T16:50:15.138Z,11.70
2019-02-21T16:52:58.953Z,11.70
2019-02-21T16:55:34.181Z,11.60
2019-02-21T16:58:14.767Z,11.50
2019-02-21T17:00:56.465Z,11.50
2019-02-21T17:03:23.942Z,11.50
2019-02-21T17:06:04.880Z,11.40
2019-02-21T17:08:38.814Z,11.50
2019-02-21T17:11:18.623Z,11.50
2019-02-21T17:14:07.473Z,11.50
2019-02-21T17:16:59.441Z,11.50
2019-02-21T17:19:35.353Z,11.60
2019-02-21T17:22:09.101Z,11.60
2019-02-21T17:24:41.859Z,11.60
2019-02-21T17:27:24.368Z,11.60
2019-02-21T17:30:07.120Z,11.60
2019-02-21T17:32:39.292Z,11.60
2019-02-21T17:35:27.691Z,11.60
2019-02-21T17:38:15.496Z,11.50
2019-02-21T17:41:14.707Z,11.40
2019-02-21T17:43:32.470Z,11.50
2019-02-21T17:46:00.118Z,11.40
2019-02-21T17:48:27.574Z,11.40
2019-02-21T17:50:55.027Z,11.40
2019-02-21T17:53:22.478Z,11.30
2019-02-21T17:55:49.883Z,11.20
2019-02-21T17:58:17.448Z,11.20
2019-02-21T18:00:44.971Z,11.20
2019-02-21T18:03:12.406Z,11.20
2019-02-21T18:05:39.785Z,11.20
2019-02-21T18:08:07.085Z,11.30
2019-02-21T18:10:34.477Z,11.30
2019-02-21T18:13:01.910Z,11.30
2019-02-21T18:15:30.254Z,11.30
2019-02-21T18:17:57.668Z,11.20
2019-02-21T18:20:25.066Z,11.20
2019-02-21T18:22:52.527Z,11.20
2019-02-21T18:25:26.126Z,11.20
2019-02-21T18:27:53.491Z,11.30
2019-02-21T18:30:20.956Z,11.20
2019-02-21T18:32:48.353Z,11.30
2019-02-21T18:35:15.743Z,11.30
2019-02-21T18:37:47.456Z,11.30
2019-02-21T18:40:17.199Z,11.30
2019-02-21T18:42:43.086Z,11.30
2019-02-21T18:45:10.455Z,11.20
2019-02-21T18:47:38.012Z,11.20
2019-02-21T18:50:05.541Z,11.20
2019-02-21T18:52:32.986Z,11.20
2019-02-21T18:55:00.589Z,11.20
2019-02-21T18:57:27.849Z,11.10
2019-02-21T18:59:55.387Z,11.10
2019-02-21T19:02:22.736Z,11.10
2019-02-21T19:04:50.239Z,11.10
2019-02-21T19:07:17.735Z,11.10
2019-02-21T19:09:45.240Z,11.20
2019-02-21T19:12:12.776Z,11.20
2019-02-21T19:14:40.268Z,11.20
2019-02-21T19:17:07.662Z,11.20
2019-02-21T19:19:35.158Z,11.20
2019-02-21T19:22:02.503Z,11.20
2019-02-21T19:24:30.001Z,11.10
2019-02-21T19:26:57.453Z,11.20
2019-02-21T19:29:24.847Z,11.20
2019-02-21T19:31:52.237Z,11.20
2019-02-21T19:34:19.681Z,11.20
2019-02-21T19:36:47.184Z,11.20
2019-02-21T19:39:14.530Z,11.20
2019-02-21T19:41:41.929Z,11.20
2019-02-21T19:44:09.525Z,11.20
2019-02-21T19:46:36.930Z,11.20
2019-02-21T19:49:04.446Z,11.10
2019-02-21T19:51:31.906Z,11.10
2019-02-21T19:53:59.315Z,11.10
2019-02-21T19:56:26.726Z,11.20
2019-02-21T19:58:54.206Z,11.20
2019-02-21T20:01:21.684Z,11.20
2019-02-21T20:03:49.043Z,11.20
2019-02-21T20:06:17.774Z,11.10
2019-02-21T20:08:45.216Z,11.20
2019-02-21T20:11:12.652Z,11.20
2019-02-21T20:13:40.089Z,11.20
2019-02-21T20:16:07.400Z,11.10
2019-02-21T20:18:34.926Z,11.10
2019-02-21T20:21:02.490Z,11.10
2019-02-21T20:23:29.951Z,11.20
2019-02-21T20:25:57.369Z,11.20
2019-02-21T20:28:24.813Z,11.20
2019-02-21T20:30:52.214Z,11.20
2019-02-21T20:33:19.631Z,11.30
2019-02-21T20:35:47.165Z,11.30
2019-02-21T20:38:32.395Z,11.30
2019-02-21T20:41:04.202Z,11.30
2019-02-21T20:43:32.753Z,11.30
2019-02-21T20:46:00.101Z,11.30
2019-02-21T20:48:27.507Z,11.20
2019-02-21T20:50:57.141Z,11.30
2019-02-21T20:53:24.574Z,11.20
2019-02-21T20:55:52.258Z,11.10
2019-02-21T20:58:19.822Z,11.20
2019-02-21T21:00:47.192Z,11.20
2019-02-21T21:03:14.724Z,11.10
2019-02-21T21:05:42.198Z,11.00
2019-02-21T21:08:09.629Z,11.10
2019-02-21T21:10:37.258Z,11.00
2019-02-21T21:13:04.718Z,11.00
2019-02-21T21:15:32.163Z,10.90
2019-02-21T21:17:59.564Z,10.90
2019-02-21T21:20:26.999Z,10.90
2019-02-21T21:22:54.506Z,10.90
2019-02-21T21:25:21.964Z,10.90
2019-02-21T21:27:49.424Z,10.80
2019-02-21T21:30:16.795Z,10.80
2019-02-21T21:32:44.330Z,10.80
2019-02-21T21:35:12.782Z,10.80
2019-02-21T21:37:40.310Z,10.80
2019-02-21T21:40:09.541Z,10.80
2019-02-21T21:42:37.170Z,10.70
2019-02-21T21:45:06.763Z,10.70
2019-02-21T21:47:34.145Z,10.70
2019-02-21T21:50:02.883Z,10.60
2019-02-21T21:52:31.590Z,10.60
2019-02-21T21:54:59.038Z,10.50
2019-02-21T21:57:26.482Z,10.50
2019-02-21T21:59:53.946Z,10.50
2019-02-21T22:02:21.176Z,10.50
2019-02-21T22:04:48.558Z,10.50
2019-02-21T22:07:15.949Z,10.50
2019-02-21T22:09:43.556Z,10.50
2019-02-21T22:12:11.109Z,10.50
2019-02-21T22:14:38.469Z,10.60
2019-02-21T22:17:05.766Z,10.60
2019-02-21T22:19:33.278Z,10.60
2019-02-21T22:22:00.725Z,10.50
2019-02-21T22:24:28.266Z,10.50
2019-02-21T22:26:55.737Z,10.50
2019-02-21T22:29:23.000Z,10.50
2019-02-21T22:31:50.377Z,10.40
2019-02-21T22:34:17.748Z,10.40
2019-02-21T22:36:45.046Z,10.40
2019-02-21T22:39:16.305Z,10.40
2019-02-21T22:41:41.928Z,10.40
2019-02-21T22:44:09.350Z,10.40
2019-02-21T22:46:36.721Z,10.40
2019-02-21T22:49:05.102Z,10.40
2019-02-21T22:51:32.505Z,10.40
2019-02-21T22:53:59.844Z,10.40
2019-02-21T22:56:27.155Z,10.30
2019-02-21T22:58:54.463Z,10.30
2019-02-21T23:01:28.177Z,10.40
2019-02-21T23:04:19.841Z,10.30
2019-02-21T23:07:06.741Z,10.30
2019-02-21T23:09:34.121Z,10.40
2019-02-21T23:12:01.524Z,10.40
2019-02-21T23:14:29.802Z,10.40
2019-02-21T23:16:57.183Z,10.40
2019-02-21T23:19:24.714Z,10.50
2019-02-21T23:21:52.113Z,10.50
2019-02-21T23:24:19.495Z,10.50
2019-02-21T23:26:47.763Z,10.40
2019-02-21T23:29:15.108Z,10.40
2019-02-21T23:31:42.506Z,10.30
2019-02-21T23:34:15.502Z,10.30
2019-02-21T23:36:42.882Z,10.30
2019-02-21T23:39:10.206Z,10.30
2019-02-21T23:41:38.198Z,10.30
2019-02-21T23:44:05.558Z,10.20
2019-02-21T23:46:32.910Z,10.30
2019-02-21T23:49:00.063Z,10.30
2019-02-21T23:51:27.413Z,10.20
2019-02-21T23:54:02.722Z,10.30
2019-02-21T23:56:24.118Z,10.30
2019-02-21T23:58:51.484Z,10.20
